Temp: 3.4°C   Baro: 1036.8mb
  Wind: 2.9mph   Dir: SSW (211°)
  Rain: 0.0mm (0.0mm/hr)
  Solar: 11W/m2  Hum: 85%

Historic data

Bath Spa Weather Station Historical Data
Daily Summary for October 18, 2021 Units:  English    Metric   Both
Daily Weekly Monthly Yearly Custom
  High: Low: Average:
Temperature: 61.5 °F 49.9 °F 57.4 °F
Dew Point: 60.4 °F 48.6 °F 56.3 °F
Humidity: 95% 90% 93%
Wind Speed: 6.4mph 0mph 2.2mph
Wind Gust: 14mph - -
Wind- - SSW
Pressure: 30.06 in 29.91 in -
Precipitation: 0.06 in    
Historical Graphs
 
 
Tabular Data for October 18, 2021
Time Temperature Dew Point Pressure Wind Wind Speed Wind Gust Humidity Rainfall Rate (Hourly) solar
00:09 51.4 °F 49.5 °F 30.06 in SSW 0.4 mph 3 mph 90% 0.00 in 0 W/m2
00:14 51.4 °F 49.5 °F 30.06 in SSW 1 mph 3 mph 90% 0.00 in 0 W/m2
00:19 51.4 °F 49.5 °F 30.06 in Calm   3 mph 90% 0.00 in 0 W/m2
00:24 51.3 °F 49.4 °F 30.06 in Calm   3 mph 90% 0.00 in 0 W/m2
00:29 51.3 °F 49.3 °F 30.05 in SSW 0.2 mph 2 mph 90% 0.00 in 0 W/m2
00:34 51.3 °F 49.3 °F 30.05 in Calm   1 mph 90% 0.00 in 0 W/m2
00:39 51.3 °F 49.3 °F 30.05 in Calm   1 mph 90% 0.00 in 0 W/m2
00:44 51.1 °F 49.1 °F 30.05 in Calm     90% 0.00 in 0 W/m2
00:49 51.1 °F 49.1 °F 30.05 in Calm     90% 0.00 in 0 W/m2
00:54 50.9 °F 48.9 °F 30.05 in Calm     90% 0.00 in 0 W/m2
00:59 50.9 °F 49.3 °F 30.05 in Calm   2 mph 90.8% 0.00 in 0 W/m2
01:04 51.1 °F 49.5 °F 30.05 in SSW 0.2 mph 2 mph 91% 0.00 in 0 W/m2
01:09 51.2 °F 49.5 °F 30.05 in SSW 0.8 mph 2 mph 91% 0.00 in 0 W/m2
01:14 51.2 °F 49.6 °F 30.05 in SSW 0.5 mph 2 mph 91% 0.00 in 0 W/m2
01:19 51.3 °F 49.6 °F 30.05 in SSW 0.6 mph 3 mph 91% 0.00 in 0 W/m2
01:24 51.3 °F 49.6 °F 30.05 in SSW 0.2 mph 2 mph 91% 0.00 in 0 W/m2
01:29 51.3 °F 49.6 °F 30.05 in SSW 1.2 mph 3 mph 91% 0.00 in 0 W/m2
01:34 51.3 °F 49.6 °F 30.05 in SSW 1.6 mph 2 mph 91% 0.00 in 0 W/m2
01:39 51.2 °F 49.5 °F 30.05 in SSW 0.9 mph 3 mph 91% 0.00 in 0 W/m2
01:44 51.1 °F 49.5 °F 30.05 in SSW 0.9 mph 3 mph 91% 0.00 in 0 W/m2
01:49 51.1 °F 49.5 °F 30.05 in SSW 1.8 mph 3 mph 91% 0.00 in 0 W/m2
01:54 51.1 °F 49.5 °F 30.05 in SSW 1.1 mph 3 mph 91% 0.00 in 0 W/m2
01:58 51 °F 49.3 °F 30.05 in SSW 2 mph 3 mph 91% 0.00 in 0 W/m2
02:04 50.9 °F 49.3 °F 30.05 in SSW 0.8 mph 3 mph 91% 0.00 in 0 W/m2
02:09 50.9 °F 49.3 °F 30.05 in SSW 1.4 mph 3 mph 91% 0.00 in 0 W/m2
02:14 51 °F 49.4 °F 30.05 in SSW 1.3 mph 3 mph 91% 0.00 in 0 W/m2
02:19 51 °F 49.4 °F 30.05 in Calm   2 mph 91% 0.00 in 0 W/m2
02:24 50.9 °F 49.3 °F 30.05 in SSW 0.6 mph 3 mph 91% 0.00 in 0 W/m2
02:29 51.1 °F 49.5 °F 30.05 in SSW 1.3 mph 2 mph 91% 0.00 in 0 W/m2
02:34 51.1 °F 49.5 °F 30.05 in SSW 0.2 mph 3 mph 91% 0.00 in 0 W/m2
02:39 51.1 °F 49.5 °F 30.05 in SSW 0.4 mph 2 mph 91.6% 0.00 in 0 W/m2
02:44 51.1 °F 49.6 °F 30.05 in SSW 0.8 mph 3 mph 91.8% 0.00 in 0 W/m2
02:49 50.9 °F 49.6 °F 30.05 in SSW 0.6 mph 2 mph 92% 0.00 in 0 W/m2
02:54 50.7 °F 49.5 °F 30.05 in SSW 1.7 mph 2 mph 92% 0.00 in 0 W/m2
02:59 50.7 °F 49.5 °F 30.05 in SSW 0.9 mph 2 mph 92% 0.00 in 0 W/m2
03:04 50.7 °F 49.5 °F 30.05 in SSW 1.2 mph 2 mph 92% 0.00 in 0 W/m2
03:09 50.6 °F 49.4 °F 30.04 in SSW 0.9 mph 2 mph 92% 0.00 in 0 W/m2
03:14 50.7 °F 49.5 °F 30.04 in SSW 1.1 mph 3 mph 92% 0.00 in 0 W/m2
03:19 50.7 °F 49.5 °F 30.04 in SSW 1.1 mph 2 mph 92% 0.00 in 0 W/m2
03:24 50.6 °F 49.4 °F 30.04 in SSW 0.4 mph 2 mph 92% 0.00 in 0 W/m2
03:29 50.7 °F 49.5 °F 30.03 in SSW 0.8 mph 2 mph 92% 0.00 in 0 W/m2
03:34 50.7 °F 49.5 °F 30.03 in SSW 0.2 mph 2 mph 92% 0.00 in 0 W/m2
03:39 50.7 °F 49.5 °F 30.03 in Calm     92% 0.00 in 0 W/m2
03:44 50.7 °F 49.5 °F 30.03 in Calm     92% 0.00 in 0 W/m2
03:49 50.4 °F 49.1 °F 30.02 in SSW 0.4 mph 2 mph 92% 0.00 in 0 W/m2
03:54 50.1 °F 48.8 °F 30.03 in Calm   1 mph 92% 0.00 in 0 W/m2
03:59 49.9 °F 48.6 °F 30.02 in SSW 0.8 mph 3 mph 92% 0.00 in 0 W/m2
04:04 50.5 °F 49.2 °F 30.02 in SSW 3 mph 5 mph 92% 0.00 in 0 W/m2
04:09 51 °F 49.9 °F 30.02 in SSW 0.9 mph 5 mph 92.8% 0.00 in 0 W/m2
04:13 51.2 °F 50.1 °F 30.02 in SSW 1.7 mph 5 mph 93% 0.00 in 0 W/m2
04:19 51.3 °F 50.3 °F 30.02 in SSW 1.6 mph 5 mph 93% 0.00 in 0 W/m2
04:24 51.4 °F 50.4 °F 30.02 in SSW 1.6 mph 4 mph 93% 0.00 in 0 W/m2
04:29 51.6 °F 50.5 °F 30.02 in SSW 2.2 mph 5 mph 93% 0.00 in 0 W/m2
04:34 51.9 °F 50.8 °F 30.02 in SSW 2.5 mph 6 mph 93% 0.00 in 0 W/m2
04:39 52.2 °F 51.1 °F 30.01 in SSW 1.2 mph 5 mph 93% 0.00 in 0 W/m2
04:44 52 °F 50.9 °F 30.01 in SSW 0.7 mph 3 mph 93% 0.00 in 0 W/m2
04:49 52 °F 50.9 °F 30.02 in SSW 0.8 mph 4 mph 93% 0.00 in 0 W/m2
04:54 52 °F 50.9 °F 30.02 in SSW 2.1 mph 5 mph 93% 0.00 in 0 W/m2
04:59 52 °F 50.9 °F 30.02 in SSW 1.2 mph 5 mph 93% 0.00 in 0 W/m2
05:04 52.2 °F 51.1 °F 30.02 in SSW 1.7 mph 4 mph 93% 0.00 in 0 W/m2
05:09 52.2 °F 51.1 °F 30.02 in SSW 1 mph 4 mph 93% 0.00 in 0 W/m2
05:14 52.2 °F 51.1 °F 30.02 in Calm   2 mph 93% 0.00 in 0 W/m2
05:19 52.2 °F 51.2 °F 30.02 in SSW 0.4 mph 3 mph 93% 0.00 in 0 W/m2
05:23 52.3 °F 51.3 °F 30.02 in SSW 0.7 mph 2 mph 93% 0.00 in 0 W/m2
05:29 52.3 °F 51.3 °F 30.02 in SSW 0.4 mph 2 mph 93% 0.00 in 0 W/m2
05:34 52.3 °F 51.3 °F 30.02 in SSW 0.4 mph 2 mph 93% 0.00 in 0 W/m2
05:39 52.2 °F 51.1 °F 30.03 in Calm     93% 0.00 in 0 W/m2
05:44 52.2 °F 51.2 °F 30.02 in SSW 2 mph 4 mph 93% 0.00 in 0 W/m2
05:49 52.3 °F 51.3 °F 30.03 in SSW 1.7 mph 5 mph 93% 0.00 in 0 W/m2
05:54 52.4 °F 51.3 °F 30.03 in SSW 1.3 mph 3 mph 93% 0.00 in 0 W/m2
05:59 52.6 °F 51.5 °F 30.03 in SSW 2.1 mph 4 mph 93% 0.00 in 0 W/m2
06:04 52.8 °F 51.7 °F 30.02 in SSW 2.6 mph 5 mph 93% 0.00 in 0 W/m2
06:09 53 °F 51.9 °F 30.02 in SSW 1.3 mph 3 mph 93% 0.00 in 0 W/m2
06:13 53.1 °F 52.1 °F 30.02 in SSW 2.2 mph 4 mph 93% 0.00 in 0 W/m2
06:19 53.3 °F 52.2 °F 30.02 in SSW 1.3 mph 5 mph 93% 0.00 in 0 W/m2
06:24 53.4 °F 52.3 °F 30.01 in SSW 1 mph 4 mph 93% 0.00 in 0 W/m2
06:29 53.5 °F 52.4 °F 30.01 in SSW 0.8 mph 4 mph 93% 0.00 in 0 W/m2
06:34 53.6 °F 52.5 °F 30.01 in SSW 0.8 mph 4 mph 93% 0.00 in 0 W/m2
06:39 53.6 °F 52.5 °F 30.01 in SSW 1.6 mph 6 mph 93% 0.00 in 0 W/m2
06:44 53.6 °F 52.5 °F 30.01 in SSW 1.1 mph 4 mph 93% 0.00 in 0 W/m2
06:49 53.6 °F 52.5 °F 30.01 in SSW 1.7 mph 5 mph 93% 0.00 in 0 W/m2
06:54 53.5 °F 52.4 °F 30.00 in SSW 3 mph 7 mph 93% 0.00 in 0 W/m2
06:59 53.5 °F 52.4 °F 30.00 in SSW 0.9 mph 5 mph 93% 0.00 in 0 W/m2
07:04 53.4 °F 52.3 °F 30.00 in SSW 0.4 mph 2 mph 93% 0.00 in 0 W/m2
07:09 53.7 °F 52.6 °F 29.99 in SSW 2.1 mph 5 mph 93% 0.00 in 0 W/m2
07:14 53.8 °F 52.7 °F 29.98 in SSW 2.6 mph 5 mph 93% 0.00 in 0 W/m2
07:19 53.9 °F 52.8 °F 29.99 in SSW 1.3 mph 5 mph 93% 0.00 in 0 W/m2
07:24 54.1 °F 53 °F 29.99 in SSW 2 mph 6 mph 93% 0.00 in 0 W/m2
07:29 54.1 °F 53.1 °F 29.98 in SSW 2.2 mph 6 mph 93% 0.00 in 0 W/m2
07:34 54.1 °F 53.1 °F 29.98 in SSW 0.8 mph 5 mph 93% 0.00 in 0 W/m2
07:39 54 °F 52.9 °F 29.98 in SSW 0.4 mph 6 mph 93% 0.00 in 0 W/m2
07:44 54 °F 52.9 °F 29.98 in Calm   1 mph 93% 0.00 in 0 W/m2
07:49 54 °F 52.9 °F 29.98 in Calm   2 mph 93% 0.00 in 0 W/m2
07:54 54.1 °F 53 °F 29.99 in SSW 0.2 mph 3 mph 93% 0.00 in 0 W/m2
07:59 54.2 °F 53.1 °F 29.99 in SSW 0.4 mph 2 mph 93% 0.00 in 5 W/m2
08:04 54.3 °F 53.2 °F 29.99 in SSW 0.6 mph 3 mph 93% 0.00 in 7 W/m2
08:09 54.4 °F 53.3 °F 29.98 in SSW 1.4 mph 4 mph 93% 0.00 in 7 W/m2
08:14 54.7 °F 53.6 °F 29.98 in SSW 1.9 mph 6 mph 93% 0.00 in 7 W/m2
08:19 54.8 °F 53.7 °F 29.98 in SSW 1.8 mph 6 mph 93% 0.00 in 12 W/m2
08:24 55 °F 53.9 °F 29.98 in SSW 2.7 mph 6 mph 93% 0.00 in 12 W/m2
08:29 55 °F 54 °F 29.98 in SSW 2.7 mph 5 mph 93% 0.00 in 19 W/m2
08:34 55.2 °F 54.1 °F 29.99 in SSW 0.4 mph 4 mph 93% 0.00 in 19 W/m2
08:39 55.5 °F 54.4 °F 29.99 in SSW 4 mph 6 mph 93% 0.00 in 12 W/m2
08:44 55.6 °F 54.5 °F 29.99 in SSW 1.6 mph 6 mph 93% 0.00 in 14 W/m2
08:48 55.7 °F 54.6 °F 29.98 in SSW 3 mph 4 mph 93% 0.00 in 12 W/m2
08:54 55.7 °F 54.6 °F 29.98 in SSW 2.1 mph 5 mph 93% 0.00 in 16 W/m2
08:59 55.8 °F 54.7 °F 29.98 in SSW 2.9 mph 6 mph 93% 0.00 in 18 W/m2
09:04 55.8 °F 54.7 °F 29.98 in SSW 2.4 mph 7 mph 93% 0.00 in 12 W/m2
09:09 55.8 °F 54.7 °F 29.98 in SSW 2.6 mph 7 mph 93% 0.00 in 11 W/m2
09:14 55.9 °F 54.9 °F 29.98 in SSW 2 mph 7 mph 93% 0.00 in 16 W/m2
09:19 56 °F 55 °F 29.98 in SSW 3.3 mph 9 mph 93% 0.00 in 21 W/m2
09:24 56.2 °F 55.1 °F 29.98 in SSW 2.2 mph 5 mph 93% 0.00 in 21 W/m2
09:29 56.4 °F 55.3 °F 29.98 in SSW 1.7 mph 6 mph 93% 0.00 in 21 W/m2
09:34 56.5 °F 55.4 °F 29.98 in SSW 1.3 mph 5 mph 93% 0.00 in 26 W/m2
09:39 56.7 °F 55.6 °F 29.98 in SSW 3.2 mph 5 mph 93% 0.00 in 28 W/m2
09:44 56.8 °F 55.8 °F 29.98 in SSW 1.7 mph 6 mph 93% 0.00 in 46 W/m2
09:49 57 °F 55.9 °F 29.98 in SSW 4 mph 9 mph 93% 0.00 in 49 W/m2
09:54 57.3 °F 56.2 °F 29.98 in SSW 4.1 mph 8 mph 93% 0.00 in 53 W/m2
09:59 57.5 °F 56.5 °F 29.98 in SSW 3.6 mph 9 mph 93.6% 0.00 in 63 W/m2
10:04 57.7 °F 56.8 °F 29.98 in SSW 3.7 mph 8 mph 94% 0.00 in 44 W/m2
10:09 57.7 °F 56.8 °F 29.97 in SSW 5.8 mph 11 mph 94% 0.00 in 39 W/m2
10:14 57.8 °F 57 °F 29.97 in SSW 5 mph 10 mph 94% 0.00 in 54 W/m2
10:19 57.9 °F 57 °F 29.98 in SSW 5.6 mph 10 mph 94% 0.00 in 60 W/m2
10:24 58 °F 57.1 °F 29.98 in South 6.1 mph 11 mph 94% 0.00 in 58 W/m2
10:29 58.1 °F 57.2 °F 29.98 in South 4.3 mph 11 mph 94% 0.00 in 60 W/m2
10:34 58.2 °F 57.3 °F 29.98 in South 4.8 mph 12 mph 94% 0.00 in 53 W/m2
10:39 58.3 °F 57.4 °F 29.97 in South 5.2 mph 11 mph 94% 0.00 in 67 W/m2
10:44 58.3 °F 57.4 °F 29.97 in South 5.2 mph 10 mph 94% 0.00 in 69 W/m2
10:49 58.4 °F 57.5 °F 29.97 in SSE 5.8 mph 11 mph 94% 0.00 in 44 W/m2
10:54 58.5 °F 57.6 °F 29.97 in SSE 4.5 mph 9 mph 94% 0.00 in 40 W/m2
10:59 58.5 °F 57.6 °F 29.97 in SSE 4.4 mph 10 mph 94% 0.00 in 39 W/m2
11:04 58.5 °F 57.6 °F 29.97 in SSE 4.1 mph 10 mph 94% 0.00 in 42 W/m2
11:09 58.5 °F 57.6 °F 29.97 in SSE 3.9 mph 9 mph 94% 0.00 in 63 W/m2
11:14 58.6 °F 57.7 °F 29.97 in SSE 2.5 mph 6 mph 94% 0.00 in 56 W/m2
11:19 58.6 °F 57.7 °F 29.97 in SSE 3.6 mph 9 mph 94% 0.00 in 54 W/m2
11:24 58.9 °F 58 °F 29.96 in SSE 4.3 mph 12 mph 94% 0.00 in 105 W/m2
11:29 59.3 °F 58.4 °F 29.96 in South 5 mph 12 mph 94% 0.00 in 116 W/m2
11:34 59.4 °F 58.5 °F 29.96 in South 3.5 mph 9 mph 94% 0.00 in 102 W/m2
11:39 59.5 °F 58.6 °F 29.96 in South 3.3 mph 9 mph 94% 0.00 in 120 W/m2
11:44 59.7 °F 58.8 °F 29.96 in South 3.3 mph 9 mph 94% 0.00 in 123 W/m2
11:49 59.9 °F 59 °F 29.96 in South 4.1 mph 9 mph 94% 0.00 in 121 W/m2
11:54 60.1 °F 59.2 °F 29.96 in South 3.5 mph 7 mph 94% 0.00 in 109 W/m2
11:59 60.1 °F 59.2 °F 29.96 in South 4.4 mph 7 mph 94% 0.00 in 95 W/m2
12:04 60.3 °F 59.4 °F 29.96 in South 4.4 mph 8 mph 94% 0.01 in 88 W/m2
12:09 60.4 °F 59.5 °F 29.96 in South 6.4 mph 9 mph 94% 0.01 in 107 W/m2
12:14 60.6 °F 59.5 °F 29.96 in South 3.5 mph 8 mph 93.2% 0.01 in 100 W/m2
12:19 60.6 °F 59.5 °F 29.96 in SSE 3.6 mph 10 mph 93% 0.01 in 70 W/m2
12:24 60.6 °F 59.5 °F 29.95 in SSE 1.5 mph 8 mph 93% 0.01 in 60 W/m2
12:29 60.8 °F 59.7 °F 29.95 in SSE 3.4 mph 7 mph 93% 0.01 in 49 W/m2
12:34 60.8 °F 59.7 °F 29.95 in SSE 3.9 mph 10 mph 92.8% 0.01 in 62 W/m2
12:39 61 °F 59.8 °F 29.95 in South 2.5 mph 9 mph 92.8% 0.01 in 70 W/m2
12:44 61 °F 59.6 °F 29.96 in South 4.2 mph 11 mph 92.3% 0.01 in 70 W/m2
12:49 61.2 °F 59.7 °F 29.95 in South 2.1 mph 11 mph 92% 0.01 in 84 W/m2
12:54 61.2 °F 59.8 °F 29.95 in South 3.2 mph 8 mph 92% 0.01 in 79 W/m2
12:59 61.3 °F 59.9 °F 29.96 in South 2.7 mph 7 mph 92% 0.01 in 67 W/m2
13:04 61.4 °F 60 °F 29.96 in South 3.3 mph 9 mph 92% 0.00 in 65 W/m2
13:09 61.5 °F 60.1 °F 29.95 in South 4.9 mph 9 mph 92% 0.00 in 51 W/m2
13:14 61.5 °F 59.7 °F 29.96 in SSW 5.4 mph 12 mph 91% 0.00 in 33 W/m2
13:19 61.5 °F 59.7 °F 29.96 in SSW 4.1 mph 12 mph 91% 0.00 in 35 W/m2
13:24 61.5 °F 59.7 °F 29.96 in SSW 3.4 mph 7 mph 91% 0.00 in 33 W/m2
13:29 61.3 °F 59.5 °F 29.95 in SSW 4.7 mph 12 mph 91% 0.00 in 30 W/m2
13:34 61.2 °F 59.5 °F 29.95 in SSW 5.7 mph 11 mph 91.2% 0.00 in 88 W/m2
13:39 61.2 °F 59.7 °F 29.94 in South 5.8 mph 14 mph 92% 0.00 in 44 W/m2
13:44 61.1 °F 59.6 °F 29.94 in South 5 mph 11 mph 92% 0.00 in 58 W/m2
13:49 61 °F 59.5 °F 29.94 in South 4.8 mph 9 mph 92% 0.00 in 42 W/m2
13:54 61 °F 59.5 °F 29.93 in South 3.7 mph 7 mph 92% 0.00 in 44 W/m2
13:59 61 °F 59.5 °F 29.93 in South 3.2 mph 8 mph 92% 0.01 in 46 W/m2
14:04 61 °F 59.5 °F 29.93 in South 4.3 mph 7 mph 92% 0.01 in 51 W/m2
14:09 61 °F 59.5 °F 29.93 in South 2.9 mph 7 mph 92% 0.01 in 49 W/m2
14:14 60.9 °F 59.5 °F 29.93 in South 2.5 mph 7 mph 92% 0.01 in 49 W/m2
14:19 60.9 °F 59.6 °F 29.93 in South 2.1 mph 5 mph 92.4% 0.02 in 44 W/m2
14:24 60.9 °F 59.5 °F 29.93 in South 4.3 mph 8 mph 92% 0.02 in 32 W/m2
14:29 61 °F 59.5 °F 29.93 in South 6 mph 11 mph 92% 0.02 in 28 W/m2
14:34 61 °F 59.9 °F 29.93 in SSE 2.4 mph 11 mph 93% 0.02 in 30 W/m2
14:39 61 °F 59.9 °F 29.92 in SSE 5.3 mph 10 mph 93% 0.02 in 30 W/m2
14:44 61 °F 59.9 °F 29.92 in SSE 3.2 mph 10 mph 93% 0.02 in 26 W/m2
14:49 61 °F 59.9 °F 29.92 in SSE 3.1 mph 6 mph 93% 0.02 in 33 W/m2
14:54 61 °F 59.9 °F 29.92 in SSE 3.7 mph 9 mph 93% 0.02 in 32 W/m2
14:59 61 °F 59.9 °F 29.93 in SSE 2.5 mph 8 mph 93% 0.01 in 28 W/m2
15:04 61 °F 59.9 °F 29.93 in SSE 2.1 mph 5 mph 93% 0.01 in 28 W/m2
15:08 61 °F 59.9 °F 29.93 in SSE 3.5 mph 10 mph 93% 0.02 in 23 W/m2
15:14 61 °F 59.9 °F 29.93 in South 2.5 mph 6 mph 93% 0.02 in 32 W/m2
15:19 61 °F 59.9 °F 29.93 in South 4.2 mph 9 mph 93% 0.02 in 35 W/m2
15:24 61 °F 59.9 °F 29.93 in South 5.4 mph 9 mph 93% 0.01 in 32 W/m2
15:29 61 °F 59.9 °F 29.92 in SSE 5.2 mph 10 mph 93% 0.01 in 37 W/m2
15:34 61 °F 59.9 °F 29.92 in SSE 5.8 mph 13 mph 93% 0.01 in 39 W/m2
15:39 61 °F 59.9 °F 29.92 in SSW 4.7 mph 13 mph 93% 0.02 in 30 W/m2
15:44 61.1 °F 60 °F 29.92 in South 4.9 mph 9 mph 93% 0.02 in 30 W/m2
15:49 61 °F 59.9 °F 29.92 in South 4.9 mph 11 mph 93% 0.02 in 33 W/m2
15:54 61 °F 59.9 °F 29.91 in South 4.1 mph 10 mph 93% 0.02 in 33 W/m2
15:59 61.2 °F 60.1 °F 29.92 in South 5.2 mph 13 mph 93.2% 0.02 in 30 W/m2
16:04 61.2 °F 60.2 °F 29.92 in SSW 4.6 mph 13 mph 93.4% 0.02 in 35 W/m2
16:09 61.2 °F 60.1 °F 29.91 in SW 5.6 mph 7 mph 93% 0.02 in 39 W/m2
16:14 61.3 °F 60.3 °F 29.91 in South 3.2 mph 9 mph 93% 0.02 in 33 W/m2
16:19 61.3 °F 60.3 °F 29.91 in South 3.7 mph 9 mph 93% 0.02 in 28 W/m2
16:24 61.3 °F 60.3 °F 29.91 in SSW 3.3 mph 9 mph 93% 0.02 in 25 W/m2
16:29 61.4 °F 60.3 °F 29.91 in SSW 5.2 mph 9 mph 93% 0.02 in 23 W/m2
16:34 61.4 °F 60.4 °F 29.91 in SSW 4 mph 8 mph 93% 0.02 in 21 W/m2
16:39 61.4 °F 60.4 °F 29.91 in SSW 5.9 mph 12 mph 93% 0.01 in 18 W/m2
16:44 61.4 °F 60.3 °F 29.91 in SSW 5.6 mph 12 mph 93% 0.01 in 21 W/m2
16:49 61.4 °F 60.3 °F 29.91 in SSW 3.7 mph 7 mph 93% 0.01 in 28 W/m2
16:54 61.3 °F 60.3 °F 29.91 in SSW 4.5 mph 7 mph 93% 0.02 in 44 W/m2
16:59 61.3 °F 60.3 °F 29.91 in SSW 2.4 mph 6 mph 93% 0.02 in 51 W/m2
17:04 61.3 °F 60.3 °F 29.91 in SSW 0.4 mph 4 mph 93% 0.01 in 42 W/m2
17:09 61.3 °F 60.3 °F 29.91 in SSW 0.8 mph 4 mph 93% 0.02 in 23 W/m2
17:14 61.3 °F 60.3 °F 29.91 in SSW 1 mph 3 mph 93% 0.02 in 23 W/m2
17:19 61.3 °F 60.3 °F 29.91 in SSW 1.2 mph 5 mph 93% 0.02 in 21 W/m2
17:24 61.3 °F 60.3 °F 29.91 in SSW 2.7 mph 5 mph 93% 0.02 in 14 W/m2
17:29 61.4 °F 60.3 °F 29.91 in SSW 2.7 mph 6 mph 93% 0.02 in 11 W/m2
17:34 61.4 °F 60.3 °F 29.91 in SSW 1.7 mph 5 mph 93% 0.02 in 11 W/m2
17:39 61.4 °F 60.3 °F 29.91 in SSW 1.3 mph 4 mph 93% 0.02 in 9 W/m2
17:44 61.3 °F 60.3 °F 29.91 in SSW 3.8 mph 7 mph 93% 0.02 in 12 W/m2
17:49 61.3 °F 60.3 °F 29.91 in SSW 1.7 mph 4 mph 93% 0.02 in 14 W/m2
17:54 61.3 °F 60.3 °F 29.91 in SSW 2 mph 5 mph 93% 0.02 in 11 W/m2
17:59 61.3 °F 60.3 °F 29.91 in SSW 2.9 mph 6 mph 93% 0.01 in 11 W/m2
18:04 61.3 °F 60.3 °F 29.91 in SSW 1.9 mph 4 mph 93% 0.01 in 7 W/m2
18:09 61.3 °F 60.3 °F 29.91 in SSW 2 mph 4 mph 93% 0.01 in 0 W/m2
18:14 61.3 °F 60.3 °F 29.91 in SSW 2.9 mph 5 mph 93% 0.00 in 0 W/m2
18:19 61.3 °F 60.4 °F 29.91 in SSW 1.7 mph 5 mph 93.6% 0.00 in 0 W/m2
18:24 61.3 °F 60.4 °F 29.91 in SSW 1.4 mph 4 mph 94% 0.00 in 0 W/m2
18:29 61.3 °F 60.4 °F 29.91 in SSW 2.2 mph 4 mph 94% 0.00 in 0 W/m2
18:34 61.3 °F 60.4 °F 29.91 in SSW 1.7 mph 4 mph 94% 0.00 in 0 W/m2
18:39 61.3 °F 60.4 °F 29.91 in SSW 0.7 mph 4 mph 94% 0.00 in 0 W/m2
18:44 61.3 °F 60.4 °F 29.91 in SSW 1.2 mph 4 mph 94% 0.00 in 0 W/m2
18:49 61.3 °F 60.4 °F 29.92 in SSW 1.2 mph 4 mph 94% 0.00 in 0 W/m2
18:54 61.3 °F 60.4 °F 29.92 in SSW 0.9 mph 3 mph 94% 0.00 in 0 W/m2
18:59 61.3 °F 60.4 °F 29.92 in SSW 1.8 mph 4 mph 94% 0.00 in 0 W/m2
19:04 61.3 °F 60.4 °F 29.93 in SSW 1.3 mph 4 mph 94% 0.00 in 0 W/m2
19:09 61.3 °F 60.4 °F 29.93 in SSW 1.8 mph 5 mph 94% 0.00 in 0 W/m2
19:14 61.3 °F 60.4 °F 29.93 in SSW 3.2 mph 6 mph 94% 0.00 in 0 W/m2
19:19 61.3 °F 60.4 °F 29.93 in SSW 2.3 mph 6 mph 94% 0.00 in 0 W/m2
19:24 61.3 °F 60.4 °F 29.93 in SSW 2.8 mph 7 mph 94% 0.00 in 0 W/m2
19:29 61.3 °F 60.4 °F 29.93 in SSW 2.3 mph 7 mph 94% 0.00 in 0 W/m2
19:34 61.3 °F 60.4 °F 29.93 in SSW 2 mph 5 mph 94% 0.00 in 0 W/m2
19:39 61.3 °F 60.4 °F 29.93 in SSW 2.4 mph 4 mph 94% 0.00 in 0 W/m2
19:44 61.3 °F 60.4 °F 29.93 in SSW 2.1 mph 6 mph 94% 0.00 in 0 W/m2
19:49 61.3 °F 60.4 °F 29.93 in SSW 3.6 mph 7 mph 94% 0.00 in 0 W/m2
19:54 61.3 °F 60.4 °F 29.93 in SSW 2.1 mph 6 mph 94% 0.00 in 0 W/m2
19:59 61.3 °F 60.4 °F 29.93 in SSW 2.1 mph 6 mph 94% 0.00 in 0 W/m2
20:04 61.3 °F 60.4 °F 29.93 in SSW 2.2 mph 5 mph 94% 0.00 in 0 W/m2
20:09 61.3 °F 60.4 °F 29.93 in SSW 0.8 mph 5 mph 94% 0.00 in 0 W/m2
20:14 61.2 °F 60.3 °F 29.93 in SSW 2.4 mph 6 mph 94% 0.00 in 0 W/m2
20:19 61.3 °F 60.4 °F 29.93 in SSW 0.8 mph 4 mph 94% 0.00 in 0 W/m2
20:24 61.2 °F 60.3 °F 29.93 in SSW 1.6 mph 3 mph 94% 0.00 in 0 W/m2
20:29 61.2 °F 60.3 °F 29.93 in SSW 1.5 mph 5 mph 94% 0.00 in 0 W/m2
20:34 61.2 °F 60.3 °F 29.93 in SSW 1.8 mph 4 mph 94% 0.00 in 0 W/m2
20:39 61.2 °F 60.3 °F 29.93 in SSW 1 mph 3 mph 94% 0.00 in 0 W/m2
20:44 61.2 °F 60.3 °F 29.94 in SSW 2.5 mph 5 mph 94% 0.00 in 0 W/m2
20:49 61.2 °F 60.3 °F 29.94 in SSW 2.4 mph 6 mph 94% 0.00 in 0 W/m2
20:54 61.2 °F 60.3 °F 29.94 in SSW 1.3 mph 3 mph 94% 0.00 in 0 W/m2
20:59 61.2 °F 60.3 °F 29.95 in SSW 3.3 mph 7 mph 94% 0.00 in 0 W/m2
21:04 61.2 °F 60.3 °F 29.95 in SSW 2.5 mph 6 mph 94% 0.00 in 0 W/m2
21:09 61.2 °F 60.3 °F 29.95 in SSW 4 mph 7 mph 94% 0.00 in 0 W/m2
21:14 61.2 °F 60.3 °F 29.95 in SSW 2.2 mph 7 mph 94% 0.00 in 0 W/m2
21:19 61.2 °F 60.3 °F 29.95 in SSW 0.8 mph 6 mph 94% 0.00 in 0 W/m2
21:24 61.2 °F 60.3 °F 29.95 in SSW 1.5 mph 4 mph 94% 0.00 in 0 W/m2
21:29 61.2 °F 60.3 °F 29.95 in SSW 1.4 mph 5 mph 94% 0.00 in 0 W/m2
21:34 61.2 °F 60.3 °F 29.94 in SSW 2.4 mph 5 mph 94% 0.00 in 0 W/m2
21:39 61.2 °F 60.3 °F 29.95 in SSW 2.5 mph 5 mph 94% 0.00 in 0 W/m2
21:44 61.2 °F 60.3 °F 29.95 in SSW 2.1 mph 5 mph 94% 0.00 in 0 W/m2
21:49 61.2 °F 60.3 °F 29.95 in SSW 0.8 mph 3 mph 94% 0.00 in 0 W/m2
21:54 61.2 °F 60.3 °F 29.96 in SSW 0.8 mph 3 mph 94% 0.00 in 0 W/m2
21:59 61.2 °F 60.3 °F 29.96 in SSW 1.7 mph 4 mph 94% 0.00 in 0 W/m2
22:04 61 °F 60.1 °F 29.95 in SSW 2.3 mph 5 mph 94% 0.00 in 0 W/m2
22:09 61.1 °F 60.2 °F 29.96 in SSW 1.2 mph 5 mph 94% 0.00 in 0 W/m2
22:14 61 °F 60.1 °F 29.96 in SSW 1.6 mph 3 mph 94% 0.00 in 0 W/m2
22:19 61 °F 60.1 °F 29.96 in SSW 1.3 mph 4 mph 94% 0.00 in 0 W/m2
22:24 61 °F 60.1 °F 29.96 in SSW 0.8 mph 3 mph 94% 0.00 in 0 W/m2
22:29 61 °F 60.1 °F 29.96 in SSW 0.4 mph 2 mph 94% 0.00 in 0 W/m2
22:34 61 °F 60.1 °F 29.96 in SSW 0.2 mph 1 mph 94% 0.00 in 0 W/m2
22:39 60.7 °F 59.8 °F 29.96 in SSW 0.4 mph 2 mph 94% 0.00 in 0 W/m2
22:44 60.4 °F 59.5 °F 29.96 in Calm     94% 0.00 in 0 W/m2
22:49 60.3 °F 59.4 °F 29.95 in Calm     94% 0.00 in 0 W/m2
22:54 60.3 °F 59.4 °F 29.96 in Calm     94% 0.00 in 0 W/m2
22:59 60.2 °F 59.3 °F 29.95 in Calm     94% 0.00 in 0 W/m2
23:04 60 °F 59.1 °F 29.95 in Calm     94% 0.00 in 0 W/m2
23:09 59.8 °F 58.9 °F 29.95 in Calm     94% 0.00 in 0 W/m2
23:14 60.1 °F 59.3 °F 29.95 in SSW 0.4 mph 2 mph 94.2% 0.00 in 0 W/m2
23:19 60.1 °F 59.2 °F 29.95 in SSW 0.2 mph 1 mph 94% 0.00 in 0 W/m2
23:24 60 °F 59.2 °F 29.95 in Calm   2 mph 94.3% 0.00 in 0 W/m2
23:29 60 °F 59.2 °F 29.95 in Calm     94.4% 0.00 in 0 W/m2
23:34 59.9 °F 59.1 °F 29.95 in Calm     94.2% 0.00 in 0 W/m2
23:39 59.7 °F 58.9 °F 29.95 in SSW 0.4 mph 3 mph 94.2% 0.00 in 0 W/m2
23:44 59.8 °F 59.1 °F 29.96 in SSW 1.6 mph 4 mph 94.6% 0.00 in 0 W/m2
23:49 59.9 °F 59.4 °F 29.95 in SSW 0.6 mph 3 mph 95% 0.00 in 0 W/m2
23:54 60.1 °F 59.5 °F 29.95 in SSW 1 mph 3 mph 95% 0.00 in 0 W/m2
23:59 60.1 °F 59.5 °F 29.95 in SSW 0.9 mph 5 mph 95% 0.00 in 0 W/m2
Bath Spa Weather
Compliments of Weather Underground - 2 mb